Flag for Egypt

Past Weather in 28°29'35.0"N, 34°30'16.9"E, Egypt — Yesterday and Last 2 Weeks

Currently: 70 °F. Clear. (Weather station: Sharm El Sheikhintl, Egypt). See more current weather

Past Weather in 28°29'35.0"N, 34°30'16.9"E — Graph

°F

28°29'35.0"N, 34°30'16.9"E Temperature Yesterday

Maximum temperature yesterday: 77 °F (at 1:00 pm)
Minimum temperature yesterday: 64 °F (at 3:00 am)
Average temperature yesterday: 70 °F

High & Low Weather Summary for the Past Weeks

 TemperatureHumidityPressure
High79 °F (Feb 26, 3:00 pm)83% (Feb 24, 5:00 am)30.27 "Hg (Feb 24, 5:00 am)
Low48 °F (Feb 19, 6:00 am)25% (Feb 14, 5:00 pm)29.74 "Hg (Feb 14, 3:00 am)
Average69 °F46%30.01 "Hg
* Reported Feb 14 12:00 am — Feb 29 12:00 am, 28°29'35.0"N, 34°30'16.9"E. Weather by CustomWeather, © 2024

Note: Actual official high and low records may vary slightly from our data, if they occured in-between our weather recording intervals... More about our weather records

28°29'35.0"N, 34°30'16.9"E Weather History for the Previous 24 Hours

Scroll right to see more
 ConditionsComfort  
Time TempWeatherWind HumidityBarometerVisibility
12:00 am
Thu, Feb 29
70 °FClear.9 mph53%30.01 "Hg10 mi
11:00 pm
Wed, Feb 28
70 °FClear.8 mph53%30.01 "Hg10 mi
10:00 pm70 °FClear.10 mph53%30.01 "Hg10 mi
9:00 pm72 °FClear.10 mph41%30.01 "Hg10 mi
8:00 pm72 °FClear.6 mph36%30.01 "Hg10 mi
7:00 pm73 °FClear.12 mph41%29.98 "Hg10 mi
6:00 pm73 °FClear.10 mph41%29.98 "Hg10 mi
5:00 pm75 °FSunny.9 mph39%29.98 "Hg10 mi
4:00 pm77 °FSunny.7 mph32%29.98 "Hg10 mi
3:00 pm77 °FSunny.9 mph36%29.98 "Hg10 mi
2:00 pm77 °FSunny.8 mph34%30.01 "Hg10 mi
1:00 pm77 °FSunny.9 mph36%30.01 "Hg10 mi
12:00 pm73 °FSunny.14 mph44%30.07 "Hg10 mi
11:00 am73 °FSunny.13 mph44%30.07 "Hg10 mi
10:00 am72 °FSunny.13 mph44%30.07 "Hg10 mi
9:00 am70 °FSunny.15 mph43%30.07 "Hg10 mi
8:00 am70 °FSunny.14 mph40%30.04 "Hg10 mi
7:00 am64 °FSunny.12 mph46%30.04 "Hg10 mi
6:00 am64 °FClear.9 mph37%30.01 "Hg10 mi
5:00 am64 °FClear.10 mph37%30.01 "Hg10 mi
4:00 am64 °FClear.10 mph46%29.95 "Hg10 mi
3:00 am64 °FClear.12 mph46%29.95 "Hg10 mi
2:00 am66 °FClear.16 mph43%29.98 "Hg10 mi
1:00 am66 °FClear.9 mph35%29.98 "Hg10 mi
Weather by CustomWeather, © 2024

See weather overview